Time;durP1;ratioP1;P1;durP2;ratioP2;P2;SDS_P1;SDS_P2;PMS_P1;PMS_P2;Temp;Humidity;BMP_temperature;BMP_pressure;BME280_temperature;BME280_humidity;BME280_pressure;Samples;Min_cycle;Max_cycle;Signal;HPM_P1;HPM_P2
2022/07/12 00:01:48;;;;;;;3.60;1.83;;;16.00;99.90;;;;;;4936510;29;20614;-64
2022/07/12 00:04:15;;;;;;;2.23;2.03;;;16.00;99.90;;;;;;4936156;29;20630;-63
2022/07/12 00:06:43;;;;;;;3.43;1.97;;;15.90;99.90;;;;;;4935931;29;20593;-62
2022/07/12 00:09:09;;;;;;;2.10;1.90;;;15.80;99.90;;;;;;4936435;29;20285;-63
2022/07/12 00:11:37;;;;;;;2.27;1.90;;;15.80;99.90;;;;;;4936425;29;20257;-63
2022/07/12 00:14:03;;;;;;;2.90;2.03;;;15.70;99.90;;;;;;4936192;29;20210;-63
2022/07/12 00:16:30;;;;;;;4.57;2.37;;;15.70;99.90;;;;;;4935760;29;20570;-64
2022/07/12 00:18:57;;;;;;;3.03;2.43;;;15.60;99.90;;;;;;4936204;29;20229;-63
2022/07/12 00:21:24;;;;;;;3.40;2.37;;;15.50;99.90;;;;;;4935342;29;20206;-64
2022/07/12 00:23:52;;;;;;;5.60;2.20;;;15.50;99.90;;;;;;4936130;29;20218;-63
2022/07/12 00:26:19;;;;;;;2.47;2.10;;;15.50;99.90;;;;;;4935712;29;20636;-63
2022/07/12 00:28:46;;;;;;;2.73;2.00;;;15.40;99.90;;;;;;4935812;29;20779;-64
2022/07/12 00:31:13;;;;;;;2.40;2.00;;;15.40;99.90;;;;;;4935888;29;20265;-63
2022/07/12 00:33:39;;;;;;;4.00;2.20;;;15.30;99.90;;;;;;4935586;29;20238;-63
2022/07/12 00:36:07;;;;;;;4.43;2.27;;;15.20;99.90;;;;;;4935160;29;20670;-63
2022/07/12 00:38:34;;;;;;;2.80;2.40;;;15.20;99.90;;;;;;4935456;29;20229;-64
2022/07/12 00:41:02;;;;;;;2.80;2.33;;;15.10;99.90;;;;;;4935828;29;20278;-63
2022/07/12 00:43:28;;;;;;;3.70;2.40;;;15.10;99.90;;;;;;4935580;29;20269;-63
2022/07/12 00:45:55;;;;;;;4.07;2.87;;;15.10;99.90;;;;;;4935327;29;20230;-63
2022/07/12 00:48:22;;;;;;;3.20;2.40;;;15.10;99.90;;;;;;4935463;29;20292;-63
2022/07/12 00:50:49;;;;;;;2.97;2.40;;;15.00;99.90;;;;;;4935421;29;20217;-63
2022/07/12 00:53:23;;;;;;;4.53;2.70;;;15.00;99.90;;;;;;4936846;29;20210;-63
2022/07/12 00:55:52;;;;;;;2.80;2.50;;;15.00;99.90;;;;;;4936023;29;20206;-63
2022/07/12 00:58:22;;;;;;;2.57;2.33;;;14.90;99.90;;;;;;4935349;29;20229;-63
2022/07/12 01:00:49;;;;;;;4.80;2.93;;;14.90;99.90;;;;;;4935218;29;20297;-63
2022/07/12 01:03:16;;;;;;;2.53;2.30;;;14.90;99.90;;;;;;4935317;29;20213;-62
2022/07/12 01:05:44;;;;;;;6.17;2.53;;;14.90;99.90;;;;;;4935074;29;20280;-63
2022/07/12 01:08:11;;;;;;;4.50;3.40;;;14.90;99.90;;;;;;4934966;29;20632;-63
2022/07/12 01:10:40;;;;;;;3.43;3.07;;;14.90;99.90;;;;;;4935257;29;20214;-63
2022/07/12 01:13:07;;;;;;;9.60;5.40;;;14.90;99.90;;;;;;4935037;29;20245;-63
2022/07/12 01:15:36;;;;;;;3.97;3.27;;;14.90;99.90;;;;;;4935062;29;20214;-63
2022/07/12 01:18:04;;;;;;;3.57;2.77;;;14.90;99.90;;;;;;4934786;29;20233;-62
2022/07/12 01:20:32;;;;;;;3.13;2.83;;;14.90;99.90;;;;;;4935230;29;20206;-63
2022/07/12 01:23:00;;;;;;;4.60;2.97;;;14.80;99.90;;;;;;4934927;29;20850;-63
2022/07/12 01:25:28;;;;;;;3.10;2.70;;;14.80;99.90;;;;;;4935328;29;20226;-63
2022/07/12 01:27:54;;;;;;;2.90;2.50;;;14.70;99.90;;;;;;4934670;29;20285;-63
2022/07/12 01:30:22;;;;;;;3.30;2.40;;;14.70;99.90;;;;;;4934821;29;20218;-63
2022/07/12 01:32:48;;;;;;;2.97;2.53;;;14.70;99.90;;;;;;4934197;29;20261;-63
2022/07/12 01:35:15;;;;;;;3.03;2.63;;;14.70;99.90;;;;;;4934826;29;20205;-63
2022/07/12 01:37:43;;;;;;;3.13;2.63;;;14.70;99.90;;;;;;4934576;29;20265;-63
2022/07/12 01:40:13;;;;;;;3.87;2.77;;;14.70;99.90;;;;;;4934580;29;20233;-63
2022/07/12 01:42:43;;;;;;;5.17;2.97;;;14.60;99.90;;;;;;4934700;29;20213;-63
2022/07/12 01:45:11;;;;;;;3.20;2.90;;;14.60;99.90;;;;;;4934952;29;20296;-63
2022/07/12 01:47:38;;;;;;;3.73;3.43;;;14.60;99.90;;;;;;4934401;29;20205;-63
2022/07/12 01:50:06;;;;;;;4.67;3.20;;;14.60;99.90;;;;;;4934910;29;20217;-63
2022/07/12 01:52:33;;;;;;;4.10;3.37;;;14.50;99.90;;;;;;4934521;29;20210;-63
2022/07/12 01:55:00;;;;;;;4.30;3.47;;;14.50;99.90;;;;;;4934721;29;20285;-63
2022/07/12 01:57:29;;;;;;;4.23;3.40;;;14.50;99.90;;;;;;4934061;29;20665;-62
2022/07/12 01:59:56;;;;;;;3.30;3.00;;;14.50;99.90;;;;;;4934992;29;20213;-63
2022/07/12 02:02:25;;;;;;;3.77;3.37;;;14.50;99.90;;;;;;4934864;29;20216;-63
2022/07/12 02:04:52;;;;;;;3.70;3.30;;;14.50;99.90;;;;;;4934501;29;20233;-63
2022/07/12 02:07:19;;;;;;;4.30;3.00;;;14.50;99.90;;;;;;4934410;29;20216;-63
2022/07/12 02:09:46;;;;;;;5.97;3.40;;;14.50;99.90;;;;;;4934161;29;20585;-63
2022/07/12 02:12:12;;;;;;;3.80;3.13;;;14.50;99.90;;;;;;4934520;29;20704;-63
2022/07/12 02:14:40;;;;;;;4.60;3.60;;;14.50;99.90;;;;;;4934285;29;20677;-64
2022/07/12 02:17:07;;;;;;;4.47;3.80;;;14.50;99.90;;;;;;4934242;29;20265;-64
2022/07/12 02:19:34;;;;;;;3.90;3.50;;;14.40;99.90;;;;;;4934485;29;20233;-64
2022/07/12 02:22:00;;;;;;;4.20;3.40;;;14.40;99.90;;;;;;4934301;29;20363;-64
2022/07/12 02:24:27;;;;;;;4.23;3.50;;;14.40;99.90;;;;;;4934226;29;20210;-62
2022/07/12 02:26:54;;;;;;;4.90;3.20;;;14.40;99.90;;;;;;4934032;29;20220;-62
2022/07/12 02:29:21;;;;;;;3.27;2.70;;;14.40;99.90;;;;;;4934465;29;20226;-62
2022/07/12 02:31:50;;;;;;;4.20;2.67;;;14.30;99.90;;;;;;4934312;29;20206;-64
2022/07/12 02:34:16;;;;;;;4.70;3.07;;;14.30;99.90;;;;;;4934067;29;20646;-64
2022/07/12 02:36:44;;;;;;;4.17;3.10;;;14.30;99.90;;;;;;4933894;29;20237;-64
2022/07/12 02:39:11;;;;;;;3.30;3.00;;;14.30;99.90;;;;;;4934272;29;20362;-64
2022/07/12 02:41:37;;;;;;;3.27;2.63;;;14.30;99.90;;;;;;4934121;29;20696;-64
2022/07/12 02:44:05;;;;;;;3.20;2.90;;;14.30;99.90;;;;;;4935823;29;20737;-63
2022/07/12 02:46:31;;;;;;;3.73;2.73;;;14.20;99.90;;;;;;4937390;29;20748;-64
2022/07/12 02:48:59;;;;;;;2.90;2.60;;;14.10;99.90;;;;;;4937461;29;20287;-63
2022/07/12 02:51:26;;;;;;;3.37;3.03;;;14.10;99.90;;;;;;4937471;29;20210;-63
2022/07/12 02:53:53;;;;;;;4.00;2.60;;;14.10;99.90;;;;;;4937796;29;20217;-62
2022/07/12 02:56:19;;;;;;;3.70;2.70;;;14.10;99.90;;;;;;4937476;29;20218;-63
2022/07/12 02:58:46;;;;;;;3.33;2.90;;;14.00;99.90;;;;;;4937758;29;20234;-62
2022/07/12 03:01:13;;;;;;;2.83;2.53;;;14.00;99.90;;;;;;4937638;29;20213;-62
2022/07/12 03:03:40;;;;;;;3.00;2.60;;;14.00;99.90;;;;;;4937537;29;20661;-63
2022/07/12 03:06:08;;;;;;;2.90;2.60;;;14.00;99.90;;;;;;4936753;29;20955;-62
2022/07/12 03:08:35;;;;;;;2.90;2.60;;;14.00;99.90;;;;;;4937493;29;20277;-62
2022/07/12 03:11:01;;;;;;;4.07;2.63;;;13.90;99.90;;;;;;4937253;29;20210;-62
2022/07/12 03:13:28;;;;;;;3.17;2.77;;;13.90;99.90;;;;;;4937317;29;20205;-62
2022/07/12 03:15:55;;;;;;;4.23;2.60;;;13.90;99.90;;;;;;4936883;29;20206;-62
2022/07/12 03:18:21;;;;;;;2.70;2.50;;;13.80;99.90;;;;;;4936942;29;20641;-62
2022/07/12 03:20:49;;;;;;;3.00;2.70;;;13.80;99.90;;;;;;4936995;29;20740;-62
2022/07/12 03:23:17;;;;;;;3.50;2.90;;;13.80;99.90;;;;;;4937158;29;20300;-65
2022/07/12 03:25:43;;;;;;;4.07;2.60;;;13.80;99.90;;;;;;4937295;29;20243;-62
2022/07/12 03:28:10;;;;;;;2.67;2.43;;;13.70;99.90;;;;;;4936439;29;20245;-62
2022/07/12 03:30:37;;;;;;;3.60;2.93;;;13.70;99.90;;;;;;4936987;29;20264;-62
2022/07/12 03:33:04;;;;;;;3.90;3.03;;;13.70;99.90;;;;;;4936672;29;20210;-62
2022/07/12 03:35:31;;;;;;;3.30;3.00;;;13.60;99.90;;;;;;4936929;29;20219;-62
2022/07/12 03:37:58;;;;;;;3.53;3.23;;;13.70;99.90;;;;;;4936463;29;20778;-62
2022/07/12 03:40:26;;;;;;;3.77;3.30;;;13.60;99.90;;;;;;4936481;29;20640;-63
2022/07/12 03:42:53;;;;;;;4.67;3.47;;;13.70;99.90;;;;;;4936822;29;20272;-62
2022/07/12 03:45:20;;;;;;;3.73;3.33;;;13.70;99.90;;;;;;4936537;29;20237;-63
2022/07/12 03:47:48;;;;;;;3.63;3.20;;;13.70;99.90;;;;;;4936146;29;20277;-63
2022/07/12 03:50:15;;;;;;;3.67;3.27;;;13.70;99.90;;;;;;4936565;29;20280;-64
2022/07/12 03:52:43;;;;;;;3.80;3.40;;;13.60;99.90;;;;;;4936545;29;20244;-63
2022/07/12 03:55:10;;;;;;;4.33;3.90;;;13.70;99.90;;;;;;4935694;29;20573;-62
2022/07/12 03:57:39;;;;;;;3.93;3.53;;;13.60;99.90;;;;;;4935954;29;20205;-63
2022/07/12 04:00:09;;;;;;;6.30;3.73;;;13.70;99.90;;;;;;4936310;29;20260;-63
2022/07/12 04:02:37;;;;;;;3.90;3.20;;;13.70;99.90;;;;;;4936453;29;20225;-62
2022/07/12 04:05:04;;;;;;;4.80;4.10;;;13.70;99.90;;;;;;4936487;29;20217;-62
2022/07/12 04:07:31;;;;;;;4.57;3.63;;;13.70;99.90;;;;;;4935875;29;20246;-60
2022/07/12 04:09:58;;;;;;;4.83;4.33;;;13.80;99.90;;;;;;4936522;29;20214;-62
2022/07/12 04:12:24;;;;;;;7.40;4.50;;;13.80;99.90;;;;;;4935968;29;20214;-63
2022/07/12 04:14:52;;;;;;;5.60;4.70;;;13.90;99.90;;;;;;4935877;29;20269;-63
2022/07/12 04:17:19;;;;;;;5.37;4.87;;;13.90;99.90;;;;;;4935988;29;20209;-62
2022/07/12 04:19:46;;;;;;;5.83;5.17;;;13.90;99.90;;;;;;4935801;29;20744;-63
2022/07/12 04:22:13;;;;;;;6.63;5.87;;;14.00;99.90;;;;;;4935877;29;20724;-63
2022/07/12 04:24:39;;;;;;;7.60;6.00;;;14.00;99.90;;;;;;4935745;29;20681;-63
2022/07/12 04:27:06;;;;;;;7.60;6.10;;;14.10;99.90;;;;;;4935286;29;20735;-63
2022/07/12 04:29:33;;;;;;;7.63;6.00;;;14.10;99.90;;;;;;4935632;29;20229;-62
2022/07/12 04:32:01;;;;;;;8.33;5.60;;;14.20;99.90;;;;;;4935775;29;20262;-63
2022/07/12 04:34:27;;;;;;;5.67;5.10;;;14.20;99.90;;;;;;4935963;29;20257;-63
2022/07/12 04:36:54;;;;;;;5.97;5.00;;;14.30;99.90;;;;;;4935327;29;20209;-63
2022/07/12 04:39:21;;;;;;;5.10;4.60;;;14.30;99.90;;;;;;4935333;29;20237;-63
2022/07/12 04:41:48;;;;;;;5.57;5.07;;;14.40;99.90;;;;;;4936729;29;20217;-63
2022/07/12 04:44:14;;;;;;;4.90;4.20;;;14.50;99.90;;;;;;4950600;29;20214;-62
2022/07/12 04:46:41;;;;;;;5.10;4.50;;;14.60;99.90;;;;;;4935232;29;20584;-63
2022/07/12 04:49:09;;;;;;;5.57;5.00;;;14.60;99.90;;;;;;4935096;29;20280;-64
2022/07/12 04:51:36;;;;;;;6.13;4.73;;;14.60;99.90;;;;;;4935254;29;20249;-63
2022/07/12 04:54:03;;;;;;;5.17;4.30;;;14.70;99.90;;;;;;4935162;29;20264;-63
2022/07/12 04:56:30;;;;;;;5.80;4.27;;;14.80;99.90;;;;;;4935976;29;20202;-63
2022/07/12 04:58:56;;;;;;;4.80;4.10;;;14.90;99.90;;;;;;4935663;29;20739;-63
2022/07/12 05:01:23;;;;;;;5.43;4.60;;;14.90;99.90;;;;;;4934724;29;20217;-63
2022/07/12 05:03:50;;;;;;;8.60;5.23;;;15.00;99.90;;;;;;4935044;29;20273;-63
2022/07/12 05:06:18;;;;;;;8.27;4.93;;;15.10;99.90;;;;;;4934356;29;20225;-63
2022/07/12 05:08:45;;;;;;;6.37;4.50;;;15.20;99.90;;;;;;4934977;29;20233;-63
2022/07/12 05:11:11;;;;;;;5.27;4.40;;;15.20;99.90;;;;;;4934367;29;20666;-64
2022/07/12 05:13:38;;;;;;;5.13;4.23;;;15.30;99.90;;;;;;4954185;29;20632;-64
2022/07/12 05:16:07;;;;;;;10.60;4.43;;;15.30;99.90;;;;;;4953864;29;20205;-63
2022/07/12 05:18:34;;;;;;;5.03;4.17;;;15.40;99.90;;;;;;4953976;28;20264;-63
2022/07/12 05:21:00;;;;;;;4.80;4.30;;;15.40;99.90;;;;;;4954118;29;20264;-63
2022/07/12 05:23:28;;;;;;;5.23;4.17;;;15.50;99.90;;;;;;4953653;29;20217;-63
2022/07/12 05:25:55;;;;;;;4.60;4.17;;;15.60;99.90;;;;;;4953430;29;20779;-63
2022/07/12 05:28:21;;;;;;;4.90;4.40;;;15.70;99.90;;;;;;4953348;29;20727;-64
2022/07/12 05:30:48;;;;;;;4.93;4.10;;;15.80;99.90;;;;;;4953854;29;20260;-64
2022/07/12 05:33:15;;;;;;;7.40;3.80;;;15.80;99.90;;;;;;4953913;29;20676;-63
2022/07/12 05:35:42;;;;;;;4.10;3.77;;;15.90;99.90;;;;;;4953444;29;20213;-63
2022/07/12 05:38:09;;;;;;;4.30;3.90;;;16.00;99.90;;;;;;4953326;29;20229;-69
2022/07/12 05:40:37;;;;;;;5.90;3.87;;;16.00;99.90;;;;;;4939126;29;20613;-65
2022/07/12 05:43:03;;;;;;;4.80;3.80;;;16.10;99.90;;;;;;4934462;29;20260;-69
2022/07/12 05:45:30;;;;;;;4.53;3.50;;;16.20;99.90;;;;;;4936787;29;20237;-62
2022/07/12 05:47:57;;;;;;;4.33;3.93;;;16.30;99.90;;;;;;4953624;29;20228;-62
2022/07/12 05:50:24;;;;;;;4.37;3.97;;;16.30;99.90;;;;;;4953854;29;20243;-61
2022/07/12 05:55:35;;;;;;;4.00;3.60;;;16.50;99.90;;;;;;4953712;29;20663;-62
2022/07/12 05:58:03;;;;;;;4.37;3.67;;;16.60;99.90;;;;;;4952954;29;20275;-63
2022/07/12 06:00:32;;;;;;;3.70;3.30;;;16.70;99.90;;;;;;4953450;29;20248;-62
2022/07/12 06:02:58;;;;;;;5.23;4.73;;;16.70;99.90;;;;;;4953216;29;20255;-65
2022/07/12 06:05:25;;;;;;;4.50;4.10;;;16.80;99.90;;;;;;4953345;29;20204;-63
2022/07/12 06:07:52;;;;;;;4.80;4.27;;;16.80;99.90;;;;;;4952967;29;20232;-64
2022/07/12 06:10:18;;;;;;;4.50;4.07;;;16.90;99.90;;;;;;4953164;29;20560;-63
2022/07/12 06:12:45;;;;;;;4.67;4.17;;;17.00;99.90;;;;;;4953293;29;20656;-65
2022/07/12 06:15:14;;;;;;;5.70;4.00;;;17.10;99.90;;;;;;4953058;29;20242;-63
2022/07/12 06:17:41;;;;;;;5.07;3.83;;;17.10;99.90;;;;;;4952788;28;20209;-63
2022/07/12 06:20:08;;;;;;;3.93;3.53;;;17.20;99.90;;;;;;4956593;29;20263;-63
2022/07/12 06:22:35;;;;;;;3.40;3.10;;;17.30;99.90;;;;;;4957266;28;20212;-63
2022/07/12 06:25:02;;;;;;;3.83;3.30;;;17.40;99.90;;;;;;4957294;29;20212;-65
2022/07/12 06:27:28;;;;;;;3.87;3.10;;;17.50;99.90;;;;;;4939302;29;20288;-64
2022/07/12 06:29:55;;;;;;;3.47;3.10;;;17.60;99.90;;;;;;4938049;29;20209;-62
2022/07/12 06:32:23;;;;;;;3.87;3.10;;;17.70;99.90;;;;;;4937425;29;20209;-62
2022/07/12 06:34:50;;;;;;;3.63;3.10;;;17.80;99.90;;;;;;4937848;29;20214;-61
2022/07/12 06:37:16;;;;;;;3.73;3.33;;;17.90;99.90;;;;;;4931677;29;20265;-62
2022/07/12 06:39:43;;;;;;;4.80;3.50;;;18.00;99.90;;;;;;4945879;29;20285;-63
2022/07/12 06:42:10;;;;;;;4.10;3.70;;;18.00;99.90;;;;;;4937301;29;20209;-63
2022/07/12 06:44:37;;;;;;;5.13;4.63;;;18.10;99.90;;;;;;4936718;29;20222;-63
2022/07/12 06:47:04;;;;;;;4.33;3.93;;;18.20;99.90;;;;;;4936584;29;20701;-62
2022/07/12 06:49:32;;;;;;;5.93;4.97;;;18.30;99.90;;;;;;4936809;29;20249;-64
2022/07/12 06:51:59;;;;;;;4.53;4.00;;;18.40;99.90;;;;;;4937394;29;20217;-62
2022/07/12 06:54:26;;;;;;;3.97;3.50;;;18.60;99.90;;;;;;4937099;29;20253;-63
2022/07/12 06:56:53;;;;;;;4.40;3.87;;;18.80;99.90;;;;;;4936245;29;20617;-62
2022/07/12 06:59:20;;;;;;;4.13;3.13;;;18.90;99.90;;;;;;4940878;29;20233;-62
2022/07/12 07:01:46;;;;;;;5.17;4.20;;;19.00;99.90;;;;;;4955783;29;20209;-64
2022/07/12 07:04:13;;;;;;;5.00;3.80;;;19.20;99.90;;;;;;4956006;29;20702;-63
2022/07/12 07:06:41;;;;;;;4.83;3.80;;;19.30;99.90;;;;;;4955523;29;20220;-64
2022/07/12 07:09:08;;;;;;;3.53;3.23;;;19.40;99.90;;;;;;4955375;29;20237;-63
2022/07/12 07:11:36;;;;;;;5.23;3.90;;;19.60;99.90;;;;;;4955900;29;20292;-63
2022/07/12 07:14:03;;;;;;;5.47;4.07;;;19.60;99.90;;;;;;4955284;29;20562;-64
2022/07/12 07:16:30;;;;;;;5.83;4.03;;;19.80;99.90;;;;;;4955288;29;20205;-63
2022/07/12 07:18:57;;;;;;;6.07;3.97;;;19.80;99.90;;;;;;4955143;29;20719;-63
2022/07/12 07:21:23;;;;;;;4.83;3.77;;;19.90;99.90;;;;;;4955223;29;20738;-64
2022/07/12 07:23:52;;;;;;;4.67;3.70;;;20.00;99.90;;;;;;4955712;29;20205;-64
2022/07/12 07:26:18;;;;;;;5.80;4.27;;;20.10;99.90;;;;;;4954768;29;20228;-64
2022/07/12 07:31:29;;;;;;;3.83;3.07;;;20.30;99.90;;;;;;4954169;28;20239;-63
2022/07/12 07:33:56;;;;;;;3.17;2.80;;;20.40;99.90;;;;;;4955539;29;20259;-63
2022/07/12 07:36:23;;;;;;;4.27;3.63;;;20.50;79.70;;;;;;4954945;29;20205;-64
2022/07/12 07:38:51;;;;;;;3.80;3.07;;;20.60;99.90;;;;;;4954822;29;20288;-63
2022/07/12 07:41:17;;;;;;;3.67;2.80;;;20.70;99.90;;;;;;4955596;29;20216;-62
2022/07/12 07:43:44;;;;;;;4.00;2.47;;;20.80;90.50;;;;;;4955034;29;20264;-63
2022/07/12 07:46:11;;;;;;;2.50;2.00;;;21.10;99.90;;;;;;4954919;29;20716;-62
2022/07/12 07:48:38;;;;;;;3.83;2.27;;;21.40;99.90;;;;;;4954860;29;20237;-62
2022/07/12 07:51:04;;;;;;;4.30;2.60;;;21.60;78.50;;;;;;4955178;29;20224;-62
2022/07/12 07:53:31;;;;;;;3.90;2.40;;;21.90;1.00;;;;;;4955171;29;20209;-63
2022/07/12 07:55:59;;;;;;;3.30;2.50;;;22.10;99.90;;;;;;4954671;29;20220;-62
2022/07/12 07:58:26;;;;;;;2.47;2.13;;;22.40;1.00;;;;;;4954488;29;20225;-63
2022/07/12 08:00:53;;;;;;;3.03;2.27;;;22.60;99.90;;;;;;4954583;29;20728;-64
2022/07/12 08:03:21;;;;;;;2.87;2.57;;;22.60;79.50;;;;;;4954893;29;20743;-64
2022/07/12 08:05:48;;;;;;;4.00;2.40;;;22.70;23.90;;;;;;4954521;29;20209;-64
2022/07/12 08:08:15;;;;;;;2.60;2.30;;;22.70;1.00;;;;;;4953864;29;20667;-66
2022/07/12 08:10:42;;;;;;;2.23;1.83;;;22.70;1.00;;;;;;4954865;29;20217;-66
2022/07/12 08:13:10;;;;;;;3.87;2.20;;;22.60;99.90;;;;;;4954568;29;20281;-65
2022/07/12 08:15:36;;;;;;;4.60;2.40;;;22.70;1.00;;;;;;4954857;28;20264;-66
2022/07/12 08:18:04;;;;;;;4.93;1.90;;;22.90;99.90;;;;;;4954012;29;20288;-66
2022/07/12 08:20:31;;;;;;;2.57;2.20;;;22.90;99.90;;;;;;4954016;29;20213;-66
2022/07/12 08:22:58;;;;;;;3.57;2.27;;;23.00;99.90;;;;;;4955216;29;20228;-63
2022/07/12 08:25:25;;;;;;;3.50;2.30;;;23.00;99.90;;;;;;4954481;29;20680;-63
2022/07/12 08:27:52;;;;;;;4.30;2.40;;;23.00;91.80;;;;;;4953776;29;20660;-63
2022/07/12 08:30:20;;;;;;;3.10;2.07;;;23.00;1.00;;;;;;4954412;29;20232;-64
2022/07/12 08:32:47;;;;;;;2.07;1.80;;;23.00;1.00;;;;;;4954034;29;20558;-65
2022/07/12 08:35:14;;;;;;;2.20;1.70;;;23.00;1.00;;;;;;4954043;29;20692;-65
2022/07/12 08:37:41;;;;;;;2.77;2.10;;;23.20;1.00;;;;;;4953744;29;20209;-64
2022/07/12 08:40:09;;;;;;;2.10;1.77;;;23.40;1.00;;;;;;4954554;29;20232;-64
2022/07/12 08:42:36;;;;;;;2.53;1.80;;;23.20;1.00;;;;;;4942631;28;20210;-67
2022/07/12 08:45:03;;;;;;;1.87;1.53;;;23.00;1.00;;;;;;4934575;29;20209;-64
2022/07/12 08:47:31;;;;;;;3.23;1.80;;;23.10;1.00;;;;;;4934343;29;20225;-65
2022/07/12 08:50:17;;;;;;;3.63;1.20;;;23.20;1.00;;;;;;4933431;29;20217;-65
2022/07/12 08:52:45;;;;;;;3.37;1.50;;;23.50;1.00;;;;;;4934908;29;20479;-67
2022/07/12 08:55:25;;;;;;;2.33;1.57;;;23.50;1.00;;;;;;4934695;29;20213;-67
2022/07/12 08:57:52;;;;;;;2.40;1.60;;;23.70;1.00;;;;;;4934094;29;20256;-67
2022/07/12 09:00:20;;;;;;;3.23;2.00;;;23.90;1.00;;;;;;4934277;29;20213;-67
2022/07/12 09:02:53;;;;;;;2.10;1.60;;;24.00;1.00;;;;;;4934940;29;20220;-67
2022/07/12 09:05:21;;;;;;;2.07;1.77;;;24.10;1.00;;;;;;4934860;29;20221;-66
2022/07/12 09:07:48;;;;;;;2.17;1.60;;;24.20;1.00;;;;;;4933823;29;20241;-63
2022/07/12 09:10:16;;;;;;;3.97;1.50;;;24.00;1.00;;;;;;4934525;29;20269;-62
2022/07/12 09:12:44;;;;;;;2.80;1.50;;;23.90;1.00;;;;;;4934015;29;20218;-63
2022/07/12 09:15:15;;;;;;;1.83;1.57;;;24.00;99.90;;;;;;4934779;29;20220;-67
2022/07/12 09:17:47;;;;;;;1.77;1.40;;;24.10;99.90;;;;;;4934051;29;20210;-65
2022/07/12 09:20:16;;;;;;;5.03;1.90;;;24.20;99.90;;;;;;4934187;29;20213;-66
2022/07/12 09:22:52;;;;;;;3.30;1.47;;;23.70;99.90;;;;;;4934159;29;20811;-65
2022/07/12 09:25:18;;;;;;;1.97;1.03;;;23.70;99.90;;;;;;4934161;29;20209;-67
2022/07/12 09:27:51;;;;;;;1.70;1.20;;;23.80;99.90;;;;;;4933675;29;20312;-66
2022/07/12 09:30:18;;;;;;;2.03;1.50;;;23.60;1.00;;;;;;4934565;29;20246;-66
2022/07/12 09:38:25;;;;;;;1.97;1.20;;;24.00;99.90;;;;;;4933125;29;20719;-62
2022/07/12 09:40:52;;;;;;;2.10;1.20;;;24.10;99.90;;;;;;4933978;29;20222;-66
2022/07/12 09:43:19;;;;;;;2.50;0.80;;;24.20;99.90;;;;;;4933735;29;20213;-66
2022/07/12 09:45:48;;;;;;;1.37;1.10;;;24.20;99.90;;;;;;4934071;29;20210;-63
2022/07/12 09:48:16;;;;;;;4.77;1.30;;;24.30;99.90;;;;;;4933175;29;20293;-63
2022/07/12 09:50:47;;;;;;;1.73;1.30;;;24.40;99.90;;;;;;4934069;29;20292;-68
2022/07/12 09:53:20;;;;;;;1.00;0.90;;;24.60;99.90;;;;;;4933430;29;20296;-68
2022/07/12 09:55:49;;;;;;;0.90;0.90;;;24.60;99.90;;;;;;4933710;29;20211;-66
2022/07/12 09:58:21;;;;;;;1.70;1.00;;;24.70;99.90;;;;;;4933275;29;20229;-66
2022/07/12 10:00:49;;;;;;;1.40;0.87;;;25.10;99.90;;;;;;4934171;29;20194;-67
2022/07/12 10:03:16;;;;;;;1.43;0.83;;;25.30;99.90;;;;;;4934517;29;20209;-67
2022/07/12 10:05:45;;;;;;;0.83;0.80;;;25.40;99.90;;;;;;4952403;29;20735;-67
2022/07/12 10:08:12;;;;;;;1.00;0.90;;;25.50;99.90;;;;;;4952421;29;20284;-63
2022/07/12 10:10:39;;;;;;;2.80;1.13;;;25.60;99.90;;;;;;4953458;29;20209;-65
2022/07/12 10:13:06;;;;;;;1.40;0.70;;;25.70;99.90;;;;;;4952644;29;20213;-65
2022/07/12 10:15:34;;;;;;;0.93;0.80;;;25.50;99.90;;;;;;4952631;29;20271;-66
2022/07/12 10:18:03;;;;;;;1.63;0.90;;;25.50;99.90;;;;;;4952318;29;20225;-64
2022/07/12 10:20:30;;;;;;;1.17;1.07;;;25.30;99.90;;;;;;4951561;29;20213;-64
2022/07/12 10:23:33;;;;;;;1.93;1.07;;;25.10;99.90;;;;;;4933690;29;20585;-63
2022/07/12 10:26:01;;;;;;;1.60;1.20;;;25.20;99.90;;;;;;4933484;29;20213;-65
2022/07/12 10:29:06;;;;;;;1.40;0.93;;;25.20;99.90;;;;;;4933151;29;20237;-67
2022/07/12 10:31:36;;;;;;;1.83;0.93;;;25.40;99.90;;;;;;4923316;29;20206;-63
2022/07/12 10:34:11;;;;;;;1.23;1.00;;;25.30;99.90;;;;;;4933463;29;20221;-63
2022/07/12 10:37:20;;;;;;;2.30;1.00;;;25.50;99.90;;;;;;4933288;29;20209;-63
2022/07/12 10:40:19;;;;;;;2.00;1.10;;;25.40;99.90;;;;;;4933586;29;20232;-64
2022/07/12 10:43:14;;;;;;;1.03;0.70;;;25.30;99.90;;;;;;4874177;29;20262;-63
2022/07/12 10:45:42;;;;;;;1.57;0.70;;;25.40;99.90;;;;;;4931483;29;20274;-63
2022/07/12 10:48:10;;;;;;;1.70;1.10;;;25.50;99.90;;;;;;4933071;29;20233;-63
2022/07/12 10:50:57;;;;;;;2.20;0.83;;;25.30;99.90;;;;;;4933100;29;20347;-61
2022/07/12 10:53:26;;;;;;;1.40;0.93;;;25.40;99.90;;;;;;4933633;29;20311;-61
2022/07/12 10:56:11;;;;;;;1.00;0.90;;;25.50;99.90;;;;;;4932839;29;20241;-62
2022/07/12 10:58:41;;;;;;;1.57;0.90;;;25.00;99.90;;;;;;4941679;29;20581;-61
2022/07/12 11:01:09;;;;;;;1.60;0.90;;;25.20;99.90;;;;;;4951939;29;20236;-64
2022/07/12 11:03:39;;;;;;;1.00;0.80;;;25.30;99.90;;;;;;4952378;29;20607;-62
2022/07/12 11:06:06;;;;;;;1.27;0.73;;;25.40;99.90;;;;;;4954908;28;20260;-63
2022/07/12 11:08:46;;;;;;;1.50;0.90;;;25.40;99.90;;;;;;4955058;29;20663;-63
2022/07/12 11:11:14;;;;;;;2.43;0.80;;;25.50;99.90;;;;;;4955712;29;20707;-64
2022/07/12 11:13:41;;;;;;;1.57;0.70;;;25.70;99.90;;;;;;4955230;29;20639;-63
2022/07/12 11:16:09;;;;;;;1.30;0.60;;;25.70;99.90;;;;;;4955554;29;20318;-66
2022/07/12 11:18:37;;;;;;;1.67;0.93;;;25.70;99.90;;;;;;4955164;29;20643;-63
2022/07/12 11:21:05;;;;;;;1.20;0.80;;;25.70;99.90;;;;;;4955319;29;20264;-63
2022/07/12 11:23:32;;;;;;;1.13;0.80;;;25.50;99.90;;;;;;4955902;29;20209;-65
2022/07/12 11:26:01;;;;;;;1.10;0.70;;;25.70;99.90;;;;;;4954901;29;20588;-62
2022/07/12 11:28:31;;;;;;;1.13;0.70;;;26.00;99.90;;;;;;4954875;29;20237;-63
2022/07/12 11:31:04;;;;;;;0.70;0.50;;;26.30;99.90;;;;;;4936113;29;20206;-62
2022/07/12 11:33:33;;;;;;;1.50;0.70;;;26.60;99.90;;;;;;4936723;29;20212;-62
2022/07/12 11:36:00;;;;;;;1.90;0.60;;;26.80;99.90;;;;;;4945550;29;20209;-66
2022/07/12 11:38:28;;;;;;;0.50;0.50;;;27.00;99.90;;;;;;4954365;29;20225;-66
2022/07/12 11:40:58;;;;;;;1.20;0.50;;;27.10;99.90;;;;;;4954760;29;20349;-65
2022/07/12 11:43:25;;;;;;;0.93;0.77;;;27.10;99.90;;;;;;4955127;29;20244;-62
2022/07/12 11:45:54;;;;;;;0.90;0.60;;;27.10;99.90;;;;;;4955161;29;20213;-63
2022/07/12 11:48:22;;;;;;;0.90;0.63;;;27.10;99.90;;;;;;4954930;29;20240;-62
2022/07/12 11:50:51;;;;;;;1.53;0.63;;;27.20;99.90;;;;;;4954583;29;20217;-64
2022/07/12 11:53:20;;;;;;;0.70;0.57;;;27.30;99.90;;;;;;4955063;29;20217;-63
2022/07/12 11:55:47;;;;;;;1.53;0.80;;;27.50;99.90;;;;;;4954773;29;20205;-65
2022/07/12 11:58:14;;;;;;;1.23;0.73;;;27.40;99.90;;;;;;4954523;29;20225;-62
2022/07/12 12:00:41;;;;;;;0.70;0.50;;;27.40;99.90;;;;;;4954775;29;20240;-63
2022/07/12 12:03:10;;;;;;;2.43;1.03;;;27.30;99.90;;;;;;4954590;29;20212;-66
2022/07/12 12:05:37;;;;;;;3.83;2.00;;;27.20;99.90;;;;;;4954632;29;20214;-65
2022/07/12 12:08:05;;;;;;;1.90;1.20;;;27.40;99.90;;;;;;4954108;29;20738;-66
2022/07/12 12:10:32;;;;;;;1.60;0.63;;;27.60;99.90;;;;;;4954980;29;20565;-66
2022/07/12 12:13:00;;;;;;;1.53;0.70;;;27.80;99.90;;;;;;4954574;29;20212;-62
2022/07/12 12:15:28;;;;;;;1.00;0.53;;;28.00;99.90;;;;;;4954614;28;20263;-61
2022/07/12 12:17:58;;;;;;;0.90;0.60;;;28.00;99.90;;;;;;4953749;29;20229;-63
2022/07/12 12:20:27;;;;;;;2.00;0.40;;;28.00;99.90;;;;;;4954509;29;20216;-64
2022/07/12 12:22:55;;;;;;;0.43;0.43;;;28.20;99.90;;;;;;4955033;29;20260;-65
2022/07/12 12:25:23;;;;;;;1.67;0.50;;;28.30;99.90;;;;;;4954347;29;20205;-62
2022/07/12 12:27:54;;;;;;;2.33;0.60;;;28.00;99.90;;;;;;4953690;28;20237;-61
2022/07/12 12:30:21;;;;;;;0.43;0.33;;;28.00;99.90;;;;;;4954507;29;20279;-63
2022/07/12 12:32:50;;;;;;;0.70;0.52;;;28.20;99.90;;;;;;4953746;29;20213;-63
2022/07/12 12:35:19;;;;;;;0.73;0.60;;;27.90;99.90;;;;;;4954378;29;20300;-62
2022/07/12 12:37:55;;;;;;;0.43;0.40;;;27.90;99.90;;;;;;4953203;29;20268;-63
2022/07/12 12:40:24;;;;;;;0.50;0.30;;;28.10;99.90;;;;;;4954320;29;20204;-63
2022/07/12 12:42:51;;;;;;;1.77;0.40;;;28.20;99.90;;;;;;4953804;29;20217;-62
2022/07/12 12:45:19;;;;;;;0.40;0.40;;;28.40;99.90;;;;;;4953599;28;20211;-63
2022/07/12 12:47:57;;;;;;;7.68;4.38;;;28.50;99.90;;;;;;4953656;29;20216;-63
2022/07/12 12:50:43;;;;;;;37.85;27.52;;;28.50;99.90;;;;;;4953845;29;20216;-62
2022/07/12 12:53:16;;;;;;;1.08;0.63;;;28.50;99.90;;;;;;4953923;29;20217;-62
2022/07/12 12:55:45;;;;;;;1.30;0.50;;;28.40;99.90;;;;;;4953407;28;20217;-63
2022/07/12 12:58:13;;;;;;;0.97;0.60;;;28.20;99.90;;;;;;4953386;29;20600;-62
2022/07/12 13:00:41;;;;;;;2.83;0.67;;;27.80;99.90;;;;;;4953885;29;20231;-63
2022/07/12 13:03:09;;;;;;;2.17;0.50;;;27.90;99.90;;;;;;4953578;29;20216;-62
2022/07/12 13:05:37;;;;;;;0.67;0.57;;;28.00;99.90;;;;;;4953865;29;20213;-62